createdAt,value
2019-02-14T00:02:28.876Z,23.70
2019-02-14T00:05:17.739Z,19.53
2019-02-14T00:07:47.289Z,19.43
2019-02-14T00:10:16.796Z,25.37
2019-02-14T00:12:46.318Z,21.30
2019-02-14T00:15:15.842Z,25.48
2019-02-14T00:17:45.668Z,20.90
2019-02-14T00:20:15.169Z,23.07
2019-02-14T00:22:44.728Z,24.07
2019-02-14T00:25:14.282Z,24.37
2019-02-14T00:27:43.805Z,22.53
2019-02-14T00:30:13.324Z,24.37
2019-02-14T00:32:42.925Z,21.77
2019-02-14T00:35:12.436Z,21.60
2019-02-14T00:37:41.935Z,24.13
2019-02-14T00:40:11.657Z,20.88
2019-02-14T00:42:41.161Z,20.90
2019-02-14T00:45:10.735Z,22.43
2019-02-14T00:47:40.287Z,22.47
2019-02-14T00:50:09.780Z,18.82
2019-02-14T00:52:39.287Z,22.50
2019-02-14T00:55:28.137Z,20.30
2019-02-14T00:57:57.648Z,18.80
2019-02-14T01:00:46.514Z,22.07
2019-02-14T01:03:48.582Z,23.17
2019-02-14T01:06:18.101Z,22.70
2019-02-14T01:08:47.609Z,21.95
2019-02-14T01:11:17.152Z,18.80
2019-02-14T01:13:46.648Z,20.73
2019-02-14T01:16:16.166Z,18.40
2019-02-14T01:18:45.665Z,22.87
2019-02-14T01:21:15.182Z,15.77
2019-02-14T01:23:45.941Z,19.00
2019-02-14T01:26:15.469Z,17.23
2019-02-14T01:28:44.959Z,19.17
2019-02-14T01:31:14.574Z,18.33
2019-02-14T01:33:44.068Z,20.00
2019-02-14T01:36:15.203Z,22.10
2019-02-14T01:38:44.733Z,18.97
2019-02-14T01:41:14.256Z,22.90
2019-02-14T01:43:43.771Z,18.65
2019-02-14T01:46:13.294Z,18.77
2019-02-14T01:48:43.756Z,18.02
2019-02-14T01:51:13.270Z,22.47
2019-02-14T01:53:42.800Z,18.90
2019-02-14T01:56:12.315Z,20.33
2019-02-14T01:58:41.851Z,18.67
2019-02-14T02:01:12.085Z,19.60
2019-02-14T02:03:41.586Z,17.83
2019-02-14T02:06:11.110Z,19.57
2019-02-14T02:08:40.607Z,18.80
2019-02-14T02:11:10.601Z,17.33
2019-02-14T02:13:41.040Z,19.65
2019-02-14T02:16:10.590Z,16.73
2019-02-14T02:18:40.086Z,18.83
2019-02-14T02:21:09.633Z,19.73
2019-02-14T02:23:39.235Z,19.70
2019-02-14T02:26:09.478Z,21.60
2019-02-14T02:28:38.979Z,20.30
2019-02-14T02:31:08.694Z,20.97
2019-02-14T02:33:38.194Z,18.57
2019-02-14T02:36:07.746Z,17.32
2019-02-14T02:38:37.743Z,20.68
2019-02-14T02:41:07.263Z,19.60
2019-02-14T02:43:36.759Z,20.93
2019-02-14T02:46:06.342Z,22.23
2019-02-14T02:48:35.876Z,21.13
2019-02-14T02:51:06.057Z,22.32
2019-02-14T02:53:35.558Z,22.93
2019-02-14T02:56:05.109Z,17.10
2019-02-14T02:58:34.608Z,18.37
2019-02-14T03:01:04.196Z,18.10
2019-02-14T03:03:34.427Z,22.22
2019-02-14T03:06:10.307Z,20.43
2019-02-14T03:08:35.166Z,20.23
2019-02-14T03:11:04.718Z,19.27
2019-02-14T03:13:34.206Z,21.97
2019-02-14T03:16:03.753Z,20.00
2019-02-14T03:18:33.285Z,17.77
2019-02-14T03:21:02.808Z,18.77
2019-02-14T03:23:32.336Z,18.27
2019-02-14T03:26:01.855Z,18.35
2019-02-14T03:28:31.430Z,22.17
2019-02-14T03:31:00.976Z,19.33
2019-02-14T03:33:30.471Z,16.90
2019-02-14T03:36:00.001Z,17.43
2019-02-14T03:38:29.507Z,21.63
2019-02-14T03:40:59.105Z,18.13
2019-02-14T03:43:28.611Z,17.53
2019-02-14T03:45:58.164Z,18.90
2019-02-14T03:48:27.670Z,17.02
2019-02-14T03:50:57.266Z,17.43
2019-02-14T03:53:26.765Z,20.33
2019-02-14T03:55:56.287Z,18.27
2019-02-14T03:58:25.788Z,18.00
2019-02-14T04:00:55.309Z,17.60
2019-02-14T04:03:24.813Z,19.43
2019-02-14T04:05:54.317Z,19.07
2019-02-14T04:08:23.834Z,15.72
2019-02-14T04:10:53.352Z,19.53
2019-02-14T04:13:22.877Z,18.67
2019-02-14T04:15:52.446Z,17.33
2019-02-14T04:18:21.947Z,16.33
2019-02-14T04:20:51.467Z,17.80
2019-02-14T04:23:21.017Z,17.70
2019-02-14T04:25:50.535Z,17.27
2019-02-14T04:28:20.036Z,14.10
2019-02-14T04:30:49.545Z,17.87
2019-02-14T04:33:19.075Z,15.83
2019-02-14T04:35:48.581Z,15.63
2019-02-14T04:38:18.090Z,15.97
2019-02-14T04:40:47.593Z,18.20
2019-02-14T04:43:17.116Z,15.60
2019-02-14T04:45:46.651Z,16.77
2019-02-14T04:48:16.177Z,15.27
2019-02-14T04:50:45.711Z,16.48
2019-02-14T04:53:15.259Z,16.20
2019-02-14T04:55:44.762Z,18.80
2019-02-14T04:58:15.559Z,20.12
2019-02-14T05:00:45.071Z,17.53
2019-02-14T05:03:14.571Z,14.37
2019-02-14T05:05:44.114Z,16.27
2019-02-14T05:08:13.630Z,15.07
2019-02-14T05:10:44.238Z,16.77
2019-02-14T05:13:13.756Z,17.23
2019-02-14T05:15:43.258Z,14.53
2019-02-14T05:18:12.814Z,16.80
2019-02-14T05:20:42.312Z,14.40
2019-02-14T05:23:12.810Z,18.45
2019-02-14T05:25:42.333Z,17.47
2019-02-14T05:28:11.860Z,18.43
2019-02-14T05:30:41.383Z,16.80
2019-02-14T05:33:10.901Z,17.23
2019-02-14T05:35:41.502Z,16.77
2019-02-14T05:38:11.021Z,19.63
2019-02-14T05:40:40.551Z,17.83
2019-02-14T05:43:10.079Z,18.25
2019-02-14T05:45:39.609Z,17.73
2019-02-14T05:48:10.371Z,17.80
2019-02-14T05:50:39.871Z,17.87
2019-02-14T05:53:09.391Z,15.57
2019-02-14T05:55:38.916Z,15.23
2019-02-14T05:58:08.529Z,14.20
2019-02-14T06:00:39.533Z,17.12
2019-02-14T06:03:09.077Z,14.87
2019-02-14T06:05:38.568Z,13.80
2019-02-14T06:08:08.093Z,15.63
2019-02-14T06:10:37.607Z,15.73
2019-02-14T06:13:07.828Z,15.55
2019-02-14T06:15:37.379Z,15.17
2019-02-14T06:18:06.883Z,16.07
2019-02-14T06:20:36.410Z,16.40
2019-02-14T06:23:05.963Z,13.97
2019-02-14T06:25:36.517Z,15.08
2019-02-14T06:28:06.156Z,15.63
2019-02-14T06:30:35.689Z,20.23
2019-02-14T06:33:05.231Z,15.75
2019-02-14T06:35:34.749Z,16.53
2019-02-14T06:38:05.061Z,16.27
2019-02-14T06:40:34.584Z,16.93
2019-02-14T06:43:04.091Z,18.47
2019-02-14T06:45:33.711Z,15.80
2019-02-14T06:48:03.254Z,18.13
2019-02-14T06:50:34.988Z,15.50
2019-02-14T06:53:04.651Z,16.30
2019-02-14T06:55:34.150Z,23.47
2019-02-14T06:58:03.663Z,18.40
2019-02-14T07:00:33.161Z,49.40
2019-02-14T07:03:02.667Z,20.67
2019-02-14T07:05:32.179Z,17.03
2019-02-14T07:08:01.734Z,17.83
2019-02-14T07:10:31.324Z,16.93
2019-02-14T07:13:00.858Z,16.13
2019-02-14T07:15:30.356Z,20.47
2019-02-14T07:17:59.874Z,15.30
2019-02-14T07:20:29.372Z,15.27
2019-02-14T07:22:58.872Z,18.80
2019-02-14T07:25:28.434Z,18.80
2019-02-14T07:27:58.061Z,19.27
2019-02-14T07:30:28.970Z,18.90
2019-02-14T07:32:58.491Z,21.33
2019-02-14T07:35:28.066Z,17.20
2019-02-14T07:37:57.574Z,22.30
2019-02-14T07:40:27.124Z,21.37
2019-02-14T07:42:56.700Z,17.23
2019-02-14T07:45:26.279Z,17.57
2019-02-14T07:47:55.806Z,15.80
2019-02-14T07:50:25.676Z,19.53
2019-02-14T07:52:55.175Z,16.07
2019-02-14T07:55:24.708Z,16.37
2019-02-14T07:57:54.235Z,18.07
2019-02-14T08:00:23.733Z,18.67
2019-02-14T08:02:53.261Z,20.60
2019-02-14T08:05:22.783Z,22.80
2019-02-14T08:07:52.305Z,24.83
2019-02-14T08:10:21.879Z,26.67
2019-02-14T08:12:51.377Z,21.50
2019-02-14T08:15:20.939Z,18.03
2019-02-14T08:17:50.466Z,16.63
2019-02-14T08:20:21.901Z,13.67
2019-02-14T08:22:51.392Z,13.33
2019-02-14T08:25:20.981Z,13.63
2019-02-14T08:27:50.473Z,11.90
2019-02-14T08:30:22.673Z,10.97
2019-02-14T08:32:52.194Z,13.67
2019-02-14T08:35:21.797Z,11.23
2019-02-14T08:37:51.280Z,13.47
2019-02-14T08:40:27.234Z,8.67
2019-02-14T08:42:58.574Z,8.67
2019-02-14T08:45:28.064Z,10.80
2019-02-14T08:47:57.579Z,10.23
2019-02-14T08:50:27.115Z,16.07
2019-02-14T08:52:56.631Z,17.33
2019-02-14T08:55:26.173Z,14.53
2019-02-14T08:57:55.674Z,17.33
2019-02-14T09:00:25.280Z,14.60
2019-02-14T09:02:54.786Z,16.37
2019-02-14T09:05:24.304Z,13.77
2019-02-14T09:07:55.074Z,13.47
2019-02-14T09:10:24.688Z,12.53
2019-02-14T09:12:54.301Z,11.97
2019-02-14T09:15:24.464Z,13.50
2019-02-14T09:17:53.965Z,13.97
2019-02-14T09:20:23.543Z,13.00
2019-02-14T09:22:53.035Z,10.57
2019-02-14T09:25:22.549Z,9.30
2019-02-14T09:27:53.288Z,10.03
2019-02-14T09:30:22.848Z,9.20
2019-02-14T09:32:52.339Z,11.63
2019-02-14T09:35:21.871Z,10.33
2019-02-14T09:37:51.396Z,10.93
2019-02-14T09:40:21.819Z,9.48
2019-02-14T09:42:51.323Z,10.90
2019-02-14T09:45:20.840Z,10.67
2019-02-14T09:47:50.322Z,7.33
2019-02-14T09:50:19.858Z,8.37
2019-02-14T09:52:49.936Z,7.37
2019-02-14T09:55:19.442Z,8.27
2019-02-14T09:57:49.046Z,9.27
2019-02-14T10:00:19.727Z,9.75
2019-02-14T10:02:49.205Z,16.43
2019-02-14T10:05:18.806Z,13.13
2019-02-14T10:07:48.318Z,9.47
2019-02-14T10:10:24.905Z,11.53
2019-02-14T10:12:54.376Z,10.30
2019-02-14T10:15:23.890Z,11.80
2019-02-14T10:17:53.381Z,12.13
2019-02-14T10:20:23.421Z,9.75
2019-02-14T10:22:52.947Z,11.43
2019-02-14T10:25:22.449Z,8.43
2019-02-14T10:27:51.972Z,7.63
2019-02-14T10:30:24.911Z,8.85
2019-02-14T10:32:54.393Z,7.40
2019-02-14T10:35:23.906Z,6.87
2019-02-14T10:37:53.414Z,6.47
2019-02-14T10:40:22.941Z,7.03
2019-02-14T10:42:52.425Z,5.70
2019-02-14T10:45:24.997Z,8.93
2019-02-14T10:47:54.494Z,6.40
2019-02-14T10:50:24.014Z,5.17
2019-02-14T10:52:53.564Z,5.80
2019-02-14T10:55:23.068Z,4.40
2019-02-14T10:57:52.560Z,7.47
2019-02-14T11:00:27.404Z,3.35
2019-02-14T11:02:56.911Z,4.87
2019-02-14T11:05:26.448Z,4.90
2019-02-14T11:07:55.938Z,4.33
2019-02-14T11:10:25.458Z,3.30
2019-02-14T11:12:54.993Z,3.10
2019-02-14T11:15:26.014Z,3.40
2019-02-14T11:17:55.589Z,2.75
2019-02-14T11:20:25.184Z,2.47
2019-02-14T11:22:54.721Z,2.57
2019-02-14T11:25:39.247Z,5.80
2019-02-14T11:28:08.751Z,1.97
2019-02-14T11:30:38.265Z,3.12
2019-02-14T11:33:07.786Z,3.80
2019-02-14T11:35:37.318Z,2.00
2019-02-14T11:38:06.866Z,2.08
2019-02-14T11:40:36.360Z,3.63
2019-02-14T11:43:05.946Z,3.13
2019-02-14T11:45:35.444Z,1.42
2019-02-14T11:48:04.952Z,1.77
2019-02-14T11:50:34.505Z,2.52
2019-02-14T11:53:03.994Z,1.47
2019-02-14T11:55:33.508Z,1.93
2019-02-14T11:58:03.000Z,1.25
2019-02-14T12:00:32.591Z,2.27
2019-02-14T12:03:02.083Z,3.60
2019-02-14T12:05:31.617Z,2.53
2019-02-14T12:08:01.108Z,2.27
2019-02-14T12:10:30.657Z,3.37
2019-02-14T12:13:00.154Z,3.22
2019-02-14T12:15:29.684Z,2.60
2019-02-14T12:17:59.185Z,3.20
2019-02-14T12:20:28.769Z,2.57
2019-02-14T12:22:58.275Z,4.55
2019-02-14T12:25:31.373Z,1.98
2019-02-14T12:28:00.918Z,3.77
2019-02-14T12:30:30.508Z,2.95
2019-02-14T12:33:00.013Z,3.30
2019-02-14T12:35:29.525Z,4.10
2019-02-14T12:37:59.049Z,3.77
2019-02-14T12:40:28.537Z,4.65
2019-02-14T12:42:58.068Z,7.90
2019-02-14T12:45:28.295Z,2.85
2019-02-14T12:47:57.782Z,2.33
2019-02-14T12:50:27.291Z,3.27
2019-02-14T12:52:56.848Z,2.50
2019-02-14T12:55:26.403Z,4.30
2019-02-14T12:57:55.902Z,2.75
2019-02-14T13:00:25.799Z,4.37
2019-02-14T13:02:55.318Z,4.87
2019-02-14T13:05:24.829Z,1.77
2019-02-14T13:07:54.331Z,2.80
2019-02-14T13:10:23.827Z,2.00
2019-02-14T13:12:53.370Z,6.20
2019-02-14T13:15:27.215Z,4.14
2019-02-14T13:17:56.740Z,1.85
2019-02-14T13:20:26.318Z,3.27
2019-02-14T13:22:55.854Z,2.03
2019-02-14T13:25:25.366Z,1.87
2019-02-14T13:27:54.901Z,2.15
2019-02-14T13:30:26.712Z,1.98
2019-02-14T13:32:56.301Z,1.93
2019-02-14T13:35:25.795Z,2.73
2019-02-14T13:37:55.377Z,3.63
2019-02-14T13:40:24.833Z,2.37
2019-02-14T13:42:55.102Z,1.56
2019-02-14T13:45:25.574Z,1.65
2019-02-14T13:47:55.077Z,2.67
2019-02-14T13:50:24.594Z,1.07
2019-02-14T13:52:54.119Z,3.00
2019-02-14T13:55:23.610Z,3.60
2019-02-14T13:57:53.130Z,3.30
2019-02-14T14:00:26.855Z,3.47
2019-02-14T14:02:56.398Z,2.43
2019-02-14T14:05:25.894Z,3.97
2019-02-14T14:07:55.415Z,2.72
2019-02-14T14:10:24.916Z,2.70
2019-02-14T14:12:54.466Z,3.42
2019-02-14T14:15:23.951Z,2.77
2019-02-14T14:17:53.563Z,4.00
2019-02-14T14:20:23.075Z,2.92
2019-02-14T14:22:52.575Z,3.33
2019-02-14T14:25:22.121Z,2.50
2019-02-14T14:27:51.634Z,3.90
2019-02-14T14:30:21.217Z,3.40
2019-02-14T14:32:50.815Z,2.50
2019-02-14T14:35:20.324Z,4.50
2019-02-14T14:37:49.828Z,1.83
2019-02-14T14:40:20.582Z,3.12
2019-02-14T14:42:49.993Z,2.60
2019-02-14T14:45:22.727Z,1.27
2019-02-14T14:47:52.251Z,2.20
2019-02-14T14:50:21.740Z,4.57
2019-02-14T14:52:51.268Z,3.67
2019-02-14T14:55:20.781Z,3.27
2019-02-14T14:57:50.307Z,2.47
2019-02-14T15:00:20.593Z,1.60
2019-02-14T15:02:50.120Z,1.30
2019-02-14T15:05:19.612Z,1.80
2019-02-14T15:07:49.146Z,3.10
2019-02-14T15:10:18.671Z,1.50
2019-02-14T15:12:49.425Z,1.40
2019-02-14T15:15:18.911Z,1.77
2019-02-14T15:17:48.435Z,2.20
2019-02-14T15:20:17.929Z,1.80
2019-02-14T15:22:47.456Z,2.80
2019-02-14T15:25:16.951Z,1.30
2019-02-14T15:27:46.479Z,1.10
2019-02-14T15:30:15.984Z,2.27
2019-02-14T15:32:45.512Z,1.40
2019-02-14T15:35:15.008Z,2.10
2019-02-14T15:37:47.159Z,2.37
2019-02-14T15:40:15.760Z,2.27
2019-02-14T15:42:45.311Z,1.60
2019-02-14T15:45:14.826Z,3.13
2019-02-14T15:47:44.358Z,3.70
2019-02-14T15:50:14.151Z,3.42
2019-02-14T15:52:43.670Z,3.67
2019-02-14T15:55:13.205Z,1.87
2019-02-14T15:57:44.657Z,3.37
2019-02-14T16:00:15.205Z,3.47
2019-02-14T16:02:44.712Z,1.77
2019-02-14T16:05:14.623Z,2.53
2019-02-14T16:07:45.456Z,5.67
2019-02-14T16:10:18.664Z,2.43
2019-02-14T16:12:46.298Z,3.13
2019-02-14T16:15:15.783Z,3.37
2019-02-14T16:17:45.295Z,4.10
2019-02-14T16:20:15.777Z,1.47
2019-02-14T16:22:46.189Z,1.17
2019-02-14T16:25:15.642Z,2.80
2019-02-14T16:27:46.397Z,2.57
2019-02-14T16:30:16.656Z,2.07
2019-02-14T16:32:46.192Z,1.93
2019-02-14T16:35:15.721Z,2.30
2019-02-14T16:37:46.515Z,1.70
2019-02-14T16:40:16.454Z,2.27
2019-02-14T16:42:45.997Z,2.07
2019-02-14T16:45:15.484Z,1.37
2019-02-14T16:47:44.967Z,1.63
2019-02-14T16:50:14.512Z,3.40
2019-02-14T16:52:44.006Z,4.27
2019-02-14T16:55:13.548Z,2.12
2019-02-14T16:57:43.060Z,2.87
2019-02-14T17:00:13.530Z,4.10
2019-02-14T17:02:43.053Z,4.97
2019-02-14T17:05:12.574Z,5.67
2019-02-14T17:07:42.096Z,3.10
2019-02-14T17:10:12.483Z,2.50
2019-02-14T17:12:41.982Z,3.50
2019-02-14T17:15:11.826Z,2.00
2019-02-14T17:17:41.341Z,5.03
2019-02-14T17:20:12.069Z,3.30
2019-02-14T17:22:41.591Z,3.47
2019-02-14T17:25:11.415Z,3.80
2019-02-14T17:27:40.961Z,3.30
2019-02-14T17:30:11.374Z,3.80
2019-02-14T17:32:40.918Z,10.67
2019-02-14T17:35:10.466Z,13.27
2019-02-14T17:37:39.982Z,21.73
2019-02-14T17:40:10.587Z,4.57
2019-02-14T17:42:40.198Z,3.93
2019-02-14T17:45:10.628Z,4.33
2019-02-14T17:47:40.432Z,5.57
2019-02-14T17:50:10.288Z,2.90
2019-02-14T17:52:39.806Z,2.20
2019-02-14T17:55:10.753Z,4.97
2019-02-14T17:57:40.297Z,1.83
2019-02-14T18:00:12.666Z,1.60
2019-02-14T18:02:42.371Z,6.17
2019-02-14T18:05:11.931Z,6.27
2019-02-14T18:07:41.475Z,9.27
2019-02-14T18:10:14.188Z,8.47
2019-02-14T18:12:43.704Z,8.70
2019-02-14T18:15:14.960Z,4.17
2019-02-14T18:17:44.488Z,6.03
2019-02-14T18:20:13.979Z,4.47
2019-02-14T18:22:43.498Z,5.77
2019-02-14T18:25:13.648Z,4.50
2019-02-14T18:27:43.179Z,4.70
2019-02-14T18:30:14.481Z,3.77
2019-02-14T18:32:44.020Z,3.97
2019-02-14T18:35:13.886Z,3.83
2019-02-14T18:37:43.413Z,6.85
2019-02-14T18:40:13.486Z,6.13
2019-02-14T18:42:46.426Z,5.47
2019-02-14T18:45:16.235Z,6.60
2019-02-14T18:47:45.796Z,7.37
2019-02-14T18:50:15.996Z,5.97
2019-02-14T18:52:45.504Z,6.70
2019-02-14T18:55:15.003Z,8.63
2019-02-14T18:57:44.535Z,7.87
2019-02-14T19:00:19.104Z,6.50
2019-02-14T19:02:48.628Z,7.17
2019-02-14T19:05:18.131Z,6.97
2019-02-14T19:07:47.679Z,7.47
2019-02-14T19:10:18.104Z,9.53
2019-02-14T19:12:47.644Z,8.47
2019-02-14T19:15:17.303Z,9.57
2019-02-14T19:17:46.830Z,9.68
2019-02-14T19:20:16.326Z,8.67
2019-02-14T19:22:45.912Z,9.60
2019-02-14T19:25:15.444Z,9.00
2019-02-14T19:27:44.979Z,11.43
2019-02-14T19:30:15.037Z,12.23
2019-02-14T19:32:44.589Z,10.82
2019-02-14T19:35:22.426Z,10.70
2019-02-14T19:37:45.384Z,10.03
2019-02-14T19:40:14.974Z,12.47
2019-02-14T19:42:44.478Z,11.13
2019-02-14T19:45:14.015Z,11.37
2019-02-14T19:47:43.524Z,9.10
2019-02-14T19:50:14.564Z,10.33
2019-02-14T19:52:44.070Z,9.47
2019-02-14T19:55:13.675Z,10.17
2019-02-14T19:57:43.179Z,11.10
2019-02-14T20:00:16.459Z,12.68
2019-02-14T20:02:45.962Z,13.33
2019-02-14T20:05:15.525Z,13.07
2019-02-14T20:07:45.028Z,10.17
2019-02-14T20:10:17.523Z,11.83
2019-02-14T20:12:47.036Z,14.63
2019-02-14T20:15:21.261Z,16.55
2019-02-14T20:17:50.745Z,12.47
2019-02-14T20:20:20.281Z,13.55
2019-02-14T20:22:49.785Z,11.67
2019-02-14T20:25:26.438Z,15.43
2019-02-14T20:27:55.951Z,15.98
2019-02-14T20:30:25.484Z,13.93
2019-02-14T20:33:03.882Z,16.47
2019-02-14T20:35:26.290Z,13.47
2019-02-14T20:37:55.818Z,13.43
2019-02-14T20:40:25.368Z,13.30
2019-02-14T20:42:54.863Z,14.33
2019-02-14T20:45:24.411Z,14.63
2019-02-14T20:47:57.057Z,11.03
2019-02-14T20:50:25.201Z,13.60
2019-02-14T20:52:54.707Z,12.10
2019-02-14T20:55:27.689Z,14.03
2019-02-14T20:57:57.190Z,15.10
2019-02-14T21:00:28.393Z,18.33
2019-02-14T21:02:57.878Z,16.87
2019-02-14T21:05:27.863Z,18.50
2019-02-14T21:07:57.386Z,16.83
2019-02-14T21:10:26.988Z,12.83
2019-02-14T21:12:56.482Z,16.60
2019-02-14T21:15:26.022Z,14.03
2019-02-14T21:17:56.763Z,13.27
2019-02-14T21:20:26.295Z,13.93
2019-02-14T21:22:55.832Z,14.43
2019-02-14T21:25:25.422Z,16.13
2019-02-14T21:27:55.605Z,12.93
2019-02-14T21:30:25.675Z,13.90
2019-02-14T21:32:55.172Z,12.90
2019-02-14T21:35:24.907Z,13.77
2019-02-14T21:37:54.555Z,14.37
2019-02-14T21:40:24.357Z,17.27
2019-02-14T21:42:54.030Z,15.83
2019-02-14T21:45:23.554Z,11.60
2019-02-14T21:47:53.104Z,11.93
2019-02-14T21:50:22.718Z,15.47
2019-02-14T21:52:52.243Z,12.60
2019-02-14T21:55:23.037Z,12.35
2019-02-14T21:57:52.640Z,11.93
2019-02-14T22:00:28.686Z,11.50
2019-02-14T22:02:58.217Z,12.73
2019-02-14T22:05:27.782Z,11.07
2019-02-14T22:07:57.303Z,14.30
2019-02-14T22:10:26.808Z,12.33
2019-02-14T22:12:56.633Z,12.27
2019-02-14T22:15:30.302Z,14.40
2019-02-14T22:18:00.161Z,10.23
2019-02-14T22:20:29.650Z,12.90
2019-02-14T22:22:59.484Z,12.10
2019-02-14T22:25:28.992Z,10.75
2019-02-14T22:27:58.508Z,12.57
2019-02-14T22:30:28.037Z,15.80
2019-02-14T22:32:57.560Z,10.07
2019-02-14T22:35:27.077Z,13.33
2019-02-14T22:37:56.589Z,11.40
2019-02-14T22:40:26.130Z,10.57
2019-02-14T22:42:55.633Z,12.87
2019-02-14T22:45:25.163Z,14.33
2019-02-14T22:47:54.738Z,13.17
2019-02-14T22:50:24.508Z,13.60
2019-02-14T22:52:54.030Z,10.70
2019-02-14T22:55:23.534Z,14.23
2019-02-14T22:57:53.084Z,10.97
2019-02-14T23:00:38.750Z,9.67
2019-02-14T23:03:08.360Z,11.40
2019-02-14T23:05:38.042Z,12.07
2019-02-14T23:08:07.578Z,11.23
2019-02-14T23:10:37.158Z,12.57
2019-02-14T23:13:06.708Z,12.03
2019-02-14T23:15:37.130Z,11.93
2019-02-14T23:18:06.705Z,13.23
2019-02-14T23:20:36.397Z,12.57
2019-02-14T23:23:05.974Z,11.23
2019-02-14T23:25:35.747Z,14.43
2019-02-14T23:28:05.249Z,11.20
2019-02-14T23:30:34.742Z,9.47
2019-02-14T23:33:05.241Z,12.58
2019-02-14T23:35:34.749Z,9.90
2019-02-14T23:38:04.797Z,14.40
2019-02-14T23:40:34.296Z,10.87
2019-02-14T23:43:04.897Z,11.23
2019-02-14T23:45:34.613Z,12.30
2019-02-14T23:48:04.201Z,11.77
2019-02-14T23:50:33.709Z,12.33
2019-02-14T23:53:03.224Z,13.93
2019-02-14T23:55:32.753Z,14.63
2019-02-14T23:58:02.958Z,12.58
